Back to Top

Language: 

My Weather Underground Personal Weather Station Historical Data with Graphs...

Delerius Weather Station Historical Data
Daily Summary for April 9, 2017 Units:  English    Metric   Both
« Previous Day
Next Day »
Daily Weekly Monthly Yearly Custom
  High: Low: Average:
Temperature: 72.7 °F 42.1 °F 56.2 °F
Dew Point: 54.1 °F 39.1 °F 46.2 °F
Humidity: 92 % 43 % 71 %
Wind Speed: 19.0 mph 0.0 mph 7.4 mph
Wind Gust: 32.0 mph - -
Wind:- - WSW
Pressure: 30.11 in 29.97 in -
Precipitation: 0.00 in    
Historical Graphs
 
 
Tabular Data for April 9, 2017
Time Temperature Dew Point Pressure Wind Wind Speed Wind Gust Humidity Rainfall Rate (Hourly) solar Conditions
00:04 47.8 °F 41.6 °F 30.11 in SW 1.0 mph 5.0 mph 79 % 0.00 in 0 W/m2
00:09 47.7 °F 41.5 °F 30.11 in SW 1.0 mph 5.0 mph 79 % 0.00 in 0 W/m2
00:14 47.8 °F 42.0 °F 30.11 in Calm   4.0 mph 80 % 0.00 in 0 W/m2
00:19 48.7 °F 42.5 °F 30.11 in Calm   5.0 mph 79 % 0.00 in 0 W/m2
00:24 48.7 °F 41.8 °F 30.11 in Calm   5.0 mph 77 % 0.00 in 0 W/m2
00:29 48.6 °F 42.0 °F 30.11 in Calm   4.0 mph 78 % 0.00 in 0 W/m2
00:34 48.2 °F 41.7 °F 30.11 in Calm   4.0 mph 78 % 0.00 in 0 W/m2
00:39 48.0 °F 41.8 °F 30.11 in Calm   4.0 mph 79 % 0.00 in 0 W/m2
00:45 48.2 °F 42.3 °F 30.11 in Calm   5.0 mph 80 % 0.00 in 0 W/m2
00:50 48.2 °F 42.0 °F 30.11 in Calm   5.0 mph 79 % 0.00 in 0 W/m2
00:55 47.8 °F 41.3 °F 30.11 in Calm   5.0 mph 78 % 0.00 in 0 W/m2
01:00 47.5 °F 41.3 °F 30.11 in SSW 1.0 mph 5.0 mph 79 % 0.00 in 0 W/m2
01:05 47.1 °F 41.3 °F 30.11 in Calm   5.0 mph 80 % 0.00 in 0 W/m2
01:10 46.9 °F 41.4 °F 30.11 in Calm   2.0 mph 81 % 0.00 in 0 W/m2
01:15 46.9 °F 41.7 °F 30.11 in Calm   3.0 mph 82 % 0.00 in 0 W/m2
01:20 46.9 °F 41.7 °F 30.11 in South 1.0 mph 6.0 mph 82 % 0.00 in 0 W/m2
01:25 47.1 °F 41.9 °F 30.11 in SSW 1.0 mph 6.0 mph 82 % 0.00 in 0 W/m2
01:30 47.5 °F 42.6 °F 30.11 in SSE 1.0 mph 6.0 mph 83 % 0.00 in 0 W/m2
01:35 47.8 °F 42.9 °F 30.11 in SSE 1.0 mph 6.0 mph 83 % 0.00 in 0 W/m2
01:40 48.6 °F 43.9 °F 30.10 in South 2.0 mph 6.0 mph 84 % 0.00 in 0 W/m2
01:45 48.9 °F 43.7 °F 30.10 in South 1.0 mph 5.0 mph 82 % 0.00 in 0 W/m2
01:50 49.1 °F 43.5 °F 30.10 in Calm   3.0 mph 81 % 0.00 in 0 W/m2
01:55 48.9 °F 43.3 °F 30.10 in Calm   2.0 mph 81 % 0.00 in 0 W/m2
02:00 49.1 °F 43.8 °F 30.10 in Calm   2.0 mph 82 % 0.00 in 0 W/m2
02:05 49.3 °F 44.0 °F 30.10 in Calm   1.0 mph 82 % 0.00 in 0 W/m2
02:10 49.5 °F 44.2 °F 30.10 in Calm   3.0 mph 82 % 0.00 in 0 W/m2
02:15 49.6 °F 44.4 °F 30.10 in SE 1.0 mph 4.0 mph 82 % 0.00 in 0 W/m2
02:20 50.0 °F 44.4 °F 30.10 in SE 1.0 mph 4.0 mph 81 % 0.00 in 0 W/m2
02:25 50.2 °F 44.6 °F 30.10 in Calm   3.0 mph 81 % 0.00 in 0 W/m2
02:30 50.4 °F 44.4 °F 30.10 in Calm   2.0 mph 80 % 0.00 in 0 W/m2
02:35 50.2 °F 44.2 °F 30.10 in Calm   2.0 mph 80 % 0.00 in 0 W/m2
02:40 50.0 °F 44.4 °F 30.10 in Calm   3.0 mph 81 % 0.00 in 0 W/m2
02:45 49.8 °F 44.2 °F 30.10 in SE 1.0 mph 3.0 mph 81 % 0.00 in 0 W/m2
02:50 49.8 °F 44.5 °F 30.10 in SE 1.0 mph 4.0 mph 82 % 0.00 in 0 W/m2
02:55 49.6 °F 44.4 °F 30.10 in SE 1.0 mph 4.0 mph 82 % 0.00 in 0 W/m2
03:05 48.7 °F 42.5 °F 30.10 in Calm   3.0 mph 79 % 0.00 in 0 W/m2
03:10 47.8 °F 42.0 °F 30.10 in Calm   2.0 mph 80 % 0.00 in 0 W/m2
03:15 47.1 °F 41.6 °F 30.10 in Calm   4.0 mph 81 % 0.00 in 0 W/m2
03:17 46.9 °F 41.4 °F 30.10 in Calm   4.0 mph 81 % 0.00 in 0 W/m2
03:22 46.6 °F 41.7 °F 30.09 in Calm   1.0 mph 83 % 0.00 in 0 W/m2
03:27 46.2 °F 41.7 °F 30.09 in Calm   1.0 mph 84 % 0.00 in 0 W/m2
03:32 46.0 °F 41.8 °F 30.10 in Calm     85 % 0.00 in 0 W/m2
03:37 45.9 °F 41.9 °F 30.10 in Calm   1.0 mph 86 % 0.00 in 0 W/m2
03:42 45.9 °F 41.9 °F 30.09 in Calm   1.0 mph 86 % 0.00 in 0 W/m2
03:47 45.5 °F 41.3 °F 30.09 in Calm   2.0 mph 85 % 0.00 in 0 W/m2
03:52 45.1 °F 41.2 °F 30.09 in Calm   2.0 mph 86 % 0.00 in 0 W/m2
03:57 45.0 °F 41.0 °F 30.09 in Calm   1.0 mph 86 % 0.00 in 0 W/m2
04:02 45.0 °F 41.3 °F 30.09 in Calm   1.0 mph 87 % 0.00 in 0 W/m2
04:07 45.1 °F 41.8 °F 30.09 in Calm   1.0 mph 88 % 0.00 in 0 W/m2
04:12 45.1 °F 41.8 °F 30.09 in Calm   1.0 mph 88 % 0.00 in 0 W/m2
04:17 45.1 °F 41.8 °F 30.09 in Calm   1.0 mph 88 % 0.00 in 0 W/m2
04:22 45.0 °F 41.3 °F 30.08 in Calm   1.0 mph 87 % 0.00 in 0 W/m2
04:27 45.1 °F 42.1 °F 30.08 in Calm   1.0 mph 89 % 0.00 in 0 W/m2
04:32 45.0 °F 41.6 °F 30.09 in Calm   1.0 mph 88 % 0.00 in 0 W/m2
04:38 45.1 °F 42.1 °F 30.08 in Calm     89 % 0.00 in 0 W/m2
04:43 44.8 °F 41.4 °F 30.08 in Calm     88 % 0.00 in 0 W/m2
04:48 44.2 °F 40.3 °F 30.08 in Calm   1.0 mph 86 % 0.00 in 0 W/m2
04:53 43.9 °F 40.0 °F 30.08 in Calm   1.0 mph 86 % 0.00 in 0 W/m2
04:58 43.7 °F 40.1 °F 30.08 in Calm   2.0 mph 87 % 0.00 in 0 W/m2
05:03 43.5 °F 40.2 °F 30.08 in Calm   2.0 mph 88 % 0.00 in 0 W/m2
05:08 43.5 °F 40.2 °F 30.08 in Calm   2.0 mph 88 % 0.00 in 0 W/m2
05:13 43.3 °F 40.0 °F 30.08 in Calm   2.0 mph 88 % 0.00 in 0 W/m2
05:18 43.2 °F 39.8 °F 30.08 in Calm     88 % 0.00 in 0 W/m2
05:23 43.2 °F 40.1 °F 30.08 in Calm     89 % 0.00 in 0 W/m2
05:28 43.0 °F 40.0 °F 30.08 in Calm   3.0 mph 89 % 0.00 in 0 W/m2
05:33 43.0 °F 40.0 °F 30.08 in Calm   5.0 mph 89 % 0.00 in 0 W/m2
05:38 42.8 °F 39.8 °F 30.08 in Calm   5.0 mph 89 % 0.00 in 0 W/m2
05:43 42.6 °F 39.9 °F 30.08 in Calm   2.0 mph 90 % 0.00 in 0 W/m2
05:48 43.3 °F 40.9 °F 30.08 in Calm   2.0 mph 91 % 0.00 in 0 W/m2
05:53 43.5 °F 40.8 °F 30.08 in Calm   2.0 mph 90 % 0.00 in 0 W/m2
05:58 43.3 °F 40.3 °F 30.08 in Calm     89 % 0.00 in 0 W/m2
06:03 43.0 °F 40.0 °F 30.08 in Calm   2.0 mph 89 % 0.00 in 0 W/m2
06:13 43.0 °F 40.0 °F 30.08 in Calm   2.0 mph 89 % 0.00 in 0 W/m2
06:18 42.6 °F 39.6 °F 30.08 in Calm   5.0 mph 89 % 0.00 in 5 W/m2
06:28 42.3 °F 39.2 °F 30.08 in Calm   2.0 mph 89 % 0.00 in 7 W/m2
06:29 42.1 °F 39.1 °F 30.08 in Calm   2.0 mph 89 % 0.00 in 9 W/m2
06:34 42.3 °F 39.8 °F 30.08 in Calm   2.0 mph 91 % 0.00 in 11 W/m2
06:39 42.3 °F 39.5 °F 30.08 in Calm   2.0 mph 90 % 0.00 in 14 W/m2
06:45 42.3 °F 39.5 °F 30.08 in Calm   1.0 mph 90 % 0.00 in 16 W/m2
06:50 42.6 °F 40.5 °F 30.08 in North 1.0 mph 5.0 mph 92 % 0.00 in 18 W/m2
06:55 43.3 °F 41.2 °F 30.08 in ENE 2.0 mph 5.0 mph 92 % 0.00 in 21 W/m2
07:00 43.9 °F 41.7 °F 30.08 in East 2.0 mph 5.0 mph 92 % 0.00 in 32 W/m2
07:05 44.2 °F 41.8 °F 30.08 in East 1.0 mph 5.0 mph 91 % 0.00 in 39 W/m2
07:10 44.8 °F 42.3 °F 30.08 in East 2.0 mph 5.0 mph 91 % 0.00 in 37 W/m2
07:15 45.1 °F 42.7 °F 30.08 in East 1.0 mph 5.0 mph 91 % 0.00 in 44 W/m2
07:20 45.5 °F 42.7 °F 30.08 in Calm   2.0 mph 90 % 0.00 in 32 W/m2
07:25 45.1 °F 41.5 °F 30.08 in Calm     87 % 0.00 in 33 W/m2
07:30 44.8 °F 41.4 °F 30.08 in Calm   2.0 mph 88 % 0.00 in 35 W/m2
07:35 45.0 °F 41.6 °F 30.08 in Calm   4.0 mph 88 % 0.00 in 37 W/m2
07:40 45.0 °F 41.6 °F 30.08 in East 1.0 mph 4.0 mph 88 % 0.00 in 100 W/m2
07:45 45.1 °F 42.1 °F 30.08 in East 1.0 mph 4.0 mph 89 % 0.00 in 109 W/m2
07:50 45.9 °F 43.1 °F 30.08 in Calm   2.0 mph 90 % 0.00 in 42 W/m2
07:55 46.9 °F 44.2 °F 30.08 in Calm   4.0 mph 90 % 0.00 in 72 W/m2
08:05 48.7 °F 45.3 °F 30.08 in Calm   2.0 mph 88 % 0.00 in 206 W/m2
08:10 50.0 °F 46.3 °F 30.08 in Calm   2.0 mph 87 % 0.00 in 220 W/m2
08:15 51.3 °F 46.9 °F 30.08 in Calm   1.0 mph 85 % 0.00 in 237 W/m2
08:25 53.8 °F 47.4 °F 30.08 in Calm   4.0 mph 79 % 0.00 in 265 W/m2
08:30 54.7 °F 47.3 °F 30.07 in Calm   3.0 mph 76 % 0.00 in 278 W/m2
08:35 55.6 °F 48.1 °F 30.07 in SSW 1.0 mph 4.0 mph 76 % 0.00 in 294 W/m2
08:40 56.3 °F 47.8 °F 30.08 in SSW 1.0 mph 4.0 mph 73 % 0.00 in 304 W/m2
08:45 57.0 °F 48.4 °F 30.07 in SSW 1.0 mph 4.0 mph 73 % 0.00 in 318 W/m2
08:50 57.9 °F 48.6 °F 30.07 in Calm   2.0 mph 71 % 0.00 in 329 W/m2
08:55 59.2 °F 49.0 °F 30.07 in Calm   1.0 mph 69 % 0.00 in 348 W/m2
09:00 59.7 °F 48.7 °F 30.07 in Calm   1.0 mph 67 % 0.00 in 360 W/m2
09:05 60.4 °F 49.0 °F 30.07 in SSW 1.0 mph 4.0 mph 66 % 0.00 in 374 W/m2
09:10 60.6 °F 48.8 °F 30.07 in SSW 2.0 mph 5.0 mph 65 % 0.00 in 385 W/m2
09:16 60.6 °F 49.2 °F 30.07 in SSW 3.0 mph 6.0 mph 66 % 0.00 in 401 W/m2
09:21 60.8 °F 49.4 °F 30.06 in SSW 4.0 mph 7.0 mph 66 % 0.00 in 418 W/m2
09:31 61.2 °F 49.3 °F 30.06 in South 5.0 mph 11.0 mph 65 % 0.00 in 439 W/m2
09:36 61.7 °F 49.4 °F 30.06 in South 4.0 mph 10.0 mph 64 % 0.00 in 457 W/m2
09:41 61.9 °F 49.1 °F 30.06 in SSE 4.0 mph 8.0 mph 63 % 0.00 in 466 W/m2
09:46 62.2 °F 49.5 °F 30.06 in South 4.0 mph 9.0 mph 63 % 0.00 in 476 W/m2
09:51 62.4 °F 49.7 °F 30.06 in South 4.0 mph 9.0 mph 63 % 0.00 in 487 W/m2
09:56 62.8 °F 49.6 °F 30.06 in South 5.0 mph 11.0 mph 62 % 0.00 in 501 W/m2
10:01 63.1 °F 49.9 °F 30.06 in South 6.0 mph 12.0 mph 62 % 0.00 in 519 W/m2
10:06 63.1 °F 49.9 °F 30.06 in South 7.0 mph 15.0 mph 62 % 0.00 in 531 W/m2
10:11 63.3 °F 50.1 °F 30.05 in SSW 8.0 mph 15.0 mph 62 % 0.00 in 538 W/m2
10:16 63.3 °F 50.1 °F 30.05 in SSW 7.0 mph 12.0 mph 62 % 0.00 in 550 W/m2
10:21 63.9 °F 50.6 °F 30.05 in SSW 7.0 mph 12.0 mph 62 % 0.00 in 564 W/m2
10:26 64.2 °F 50.5 °F 30.05 in SSW 7.0 mph 14.0 mph 61 % 0.00 in 577 W/m2
10:31 64.6 °F 50.8 °F 30.05 in SW 8.0 mph 14.0 mph 61 % 0.00 in 585 W/m2
10:36 64.9 °F 50.7 °F 30.05 in SSW 7.0 mph 12.0 mph 60 % 0.00 in 594 W/m2
10:46 65.3 °F 50.6 °F 30.04 in South 7.0 mph 14.0 mph 59 % 0.00 in 606 W/m2
10:51 65.7 °F 50.9 °F 30.04 in SSE 7.0 mph 14.0 mph 59 % 0.00 in 612 W/m2
10:56 65.8 °F 50.6 °F 30.04 in SSE 7.0 mph 14.0 mph 58 % 0.00 in 621 W/m2
11:01 66.0 °F 50.3 °F 30.04 in SSE 8.0 mph 14.0 mph 57 % 0.00 in 626 W/m2
11:06 66.0 °F 50.3 °F 30.04 in SSE 8.0 mph 14.0 mph 57 % 0.00 in 635 W/m2
11:11 66.4 °F 51.2 °F 30.04 in SSE 8.0 mph 14.0 mph 58 % 0.00 in 647 W/m2
11:16 66.7 °F 51.0 °F 30.03 in SSE 7.0 mph 12.0 mph 57 % 0.00 in 654 W/m2
11:21 67.3 °F 51.5 °F 30.03 in SSE 7.0 mph 13.0 mph 57 % 0.00 in 666 W/m2
11:26 67.8 °F 52.0 °F 30.04 in South 6.0 mph 13.0 mph 57 % 0.00 in 673 W/m2
11:31 68.2 °F 51.9 °F 30.03 in SSW 8.0 mph 16.0 mph 56 % 0.00 in 679 W/m2
11:36 68.4 °F 51.6 °F 30.03 in SSW 9.0 mph 16.0 mph 55 % 0.00 in 677 W/m2
11:41 68.5 °F 52.2 °F 30.03 in SSW 7.0 mph 15.0 mph 56 % 0.00 in 694 W/m2
11:42 68.7 °F 52.4 °F 30.03 in SSW 7.0 mph 15.0 mph 56 % 0.00 in 696 W/m2
11:47 69.3 °F 51.9 °F 30.02 in SW 7.0 mph 14.0 mph 54 % 0.00 in 703 W/m2
11:52 70.0 °F 53.1 °F 30.02 in WSW 8.0 mph 14.0 mph 55 % 0.00 in 707 W/m2
12:02 69.4 °F 52.1 °F 30.02 in SSW 11.0 mph 16.0 mph 54 % 0.00 in 719 W/m2
12:07 69.6 °F 52.7 °F 30.02 in SSW 10.0 mph 16.0 mph 55 % 0.00 in 722 W/m2
12:12 69.6 °F 52.2 °F 30.01 in SSW 10.0 mph 18.0 mph 54 % 0.00 in 731 W/m2
12:17 70.2 °F 52.7 °F 30.01 in SW 11.0 mph 20.0 mph 54 % 0.00 in 733 W/m2
12:22 70.3 °F 52.4 °F 30.01 in SW 11.0 mph 20.0 mph 53 % 0.00 in 738 W/m2
12:27 70.5 °F 52.6 °F 30.01 in SW 10.0 mph 19.0 mph 53 % 0.00 in 742 W/m2
12:32 70.5 °F 52.6 °F 30.01 in SSW 11.0 mph 23.0 mph 53 % 0.00 in 751 W/m2
12:42 70.5 °F 52.0 °F 30.01 in SSW 14.0 mph 22.0 mph 52 % 0.00 in 756 W/m2
12:47 70.5 °F 52.0 °F 30.01 in SW 13.0 mph 20.0 mph 52 % 0.00 in 761 W/m2
12:48 70.5 °F 52.0 °F 30.00 in SW 13.0 mph 20.0 mph 52 % 0.00 in 761 W/m2
12:53 70.9 °F 50.8 °F 30.00 in SW 14.0 mph 24.0 mph 49 % 0.00 in 738 W/m2
12:58 70.9 °F 49.6 °F 30.01 in SW 16.0 mph 26.0 mph 47 % 0.00 in 722 W/m2
13:03 70.9 °F 49.6 °F 30.00 in SW 16.0 mph 26.0 mph 47 % 0.00 in 747 W/m2
13:08 70.9 °F 49.6 °F 30.00 in SW 16.0 mph 25.0 mph 47 % 0.00 in 737 W/m2
13:13 70.9 °F 50.2 °F 30.00 in SW 14.0 mph 24.0 mph 48 % 0.00 in 701 W/m2
13:18 71.1 °F 50.9 °F 30.00 in SW 13.0 mph 24.0 mph 49 % 0.00 in 680 W/m2
13:23 71.2 °F 51.1 °F 30.00 in SW 11.0 mph 21.0 mph 49 % 0.00 in 751 W/m2
13:28 71.6 °F 51.4 °F 30.00 in SW 10.0 mph 18.0 mph 49 % 0.00 in 742 W/m2
13:33 72.0 °F 50.0 °F 30.00 in SW 11.0 mph 23.0 mph 46 % 0.00 in 742 W/m2
13:38 71.8 °F 50.5 °F 29.99 in SW 12.0 mph 23.0 mph 47 % 0.00 in 671 W/m2
13:43 72.0 °F 50.6 °F 29.99 in SW 12.0 mph 20.0 mph 47 % 0.00 in 729 W/m2
13:48 72.0 °F 49.5 °F 29.99 in SW 13.0 mph 21.0 mph 45 % 0.00 in 733 W/m2
13:53 72.0 °F 49.5 °F 29.99 in SW 12.0 mph 21.0 mph 45 % 0.00 in 735 W/m2
13:58 72.3 °F 48.6 °F 29.99 in SW 11.0 mph 18.0 mph 43 % 0.00 in 737 W/m2
14:03 72.5 °F 49.3 °F 29.99 in WSW 11.0 mph 18.0 mph 44 % 0.00 in 728 W/m2
14:08 72.5 °F 48.7 °F 29.99 in SW 11.0 mph 19.0 mph 43 % 0.00 in 649 W/m2
14:13 72.7 °F 49.5 °F 29.99 in SW 11.0 mph 19.0 mph 44 % 0.00 in 633 W/m2
14:18 72.7 °F 48.9 °F 29.99 in WSW 12.0 mph 20.0 mph 43 % 0.00 in 737 W/m2
14:26 72.3 °F 48.6 °F 29.99 in WSW 14.0 mph 26.0 mph 43 % 0.00 in 740 W/m2
14:31 72.1 °F 49.6 °F 29.99 in WSW 13.0 mph 23.0 mph 45 % 0.00 in 649 W/m2
14:36 72.0 °F 50.0 °F 29.99 in SW 13.0 mph 24.0 mph 46 % 0.00 in 708 W/m2
14:41 72.0 °F 50.6 °F 29.99 in WSW 12.0 mph 24.0 mph 47 % 0.00 in 668 W/m2
14:46 72.1 °F 50.8 °F 29.98 in WSW 11.0 mph 21.0 mph 47 % 0.00 in 621 W/m2
14:51 72.0 °F 50.6 °F 29.98 in SW 11.0 mph 21.0 mph 47 % 0.00 in 694 W/m2
14:56 72.1 °F 50.2 °F 29.98 in SW 12.0 mph 21.0 mph 46 % 0.00 in 677 W/m2
15:01 72.1 °F 51.4 °F 29.98 in SW 11.0 mph 20.0 mph 48 % 0.00 in 680 W/m2
15:06 72.1 °F 51.4 °F 29.98 in WSW 9.0 mph 15.0 mph 48 % 0.00 in 578 W/m2
15:11 72.1 °F 51.4 °F 29.98 in WSW 11.0 mph 21.0 mph 48 % 0.00 in 650 W/m2
15:16 72.1 °F 50.8 °F 29.98 in West 13.0 mph 22.0 mph 47 % 0.00 in 628 W/m2
15:21 72.0 °F 50.6 °F 29.98 in West 13.0 mph 22.0 mph 47 % 0.00 in 452 W/m2
15:26 71.6 °F 50.9 °F 29.97 in WSW 12.0 mph 21.0 mph 48 % 0.00 in 548 W/m2
15:36 71.6 °F 50.9 °F 29.97 in WSW 13.0 mph 22.0 mph 48 % 0.00 in 640 W/m2
15:41 71.8 °F 51.6 °F 29.97 in West 11.0 mph 21.0 mph 49 % 0.00 in 636 W/m2
15:46 72.0 °F 52.3 °F 29.97 in West 10.0 mph 19.0 mph 50 % 0.00 in 619 W/m2
15:51 72.1 °F 51.4 °F 29.97 in West 11.0 mph 20.0 mph 48 % 0.00 in 380 W/m2
15:56 71.8 °F 51.0 °F 29.97 in West 12.0 mph 20.0 mph 48 % 0.00 in 193 W/m2
16:01 71.2 °F 52.2 °F 29.97 in West 13.0 mph 21.0 mph 51 % 0.00 in 338 W/m2
16:06 70.9 °F 52.4 °F 29.97 in West 13.0 mph 21.0 mph 52 % 0.00 in 346 W/m2
16:11 70.5 °F 52.6 °F 29.97 in West 12.0 mph 20.0 mph 53 % 0.00 in 373 W/m2
16:16 70.2 °F 52.2 °F 29.97 in West 13.0 mph 23.0 mph 53 % 0.00 in 276 W/m2
16:21 69.6 °F 53.2 °F 29.97 in West 11.0 mph 23.0 mph 56 % 0.00 in 227 W/m2
16:26 69.3 °F 53.4 °F 29.97 in WNW 11.0 mph 20.0 mph 57 % 0.00 in 564 W/m2
16:31 69.1 °F 54.1 °F 29.97 in WNW 13.0 mph 20.0 mph 59 % 0.00 in 512 W/m2
16:32 69.1 °F 54.1 °F 29.97 in WNW 13.0 mph 21.0 mph 59 % 0.00 in 536 W/m2
16:37 68.7 °F 53.8 °F 29.97 in WNW 12.0 mph 21.0 mph 59 % 0.00 in 422 W/m2
16:42 68.5 °F 53.2 °F 29.98 in WNW 11.0 mph 21.0 mph 58 % 0.00 in 371 W/m2
16:47 68.2 °F 53.8 °F 29.98 in WNW 11.0 mph 19.0 mph 60 % 0.00 in 462 W/m2
16:52 67.6 °F 52.8 °F 29.98 in WNW 12.0 mph 22.0 mph 59 % 0.00 in 429 W/m2
16:57 67.1 °F 52.7 °F 29.98 in WNW 13.0 mph 22.0 mph 60 % 0.00 in 445 W/m2
17:02 66.6 °F 52.7 °F 29.99 in WNW 13.0 mph 22.0 mph 61 % 0.00 in 432 W/m2
17:07 65.8 °F 52.5 °F 29.99 in WNW 13.0 mph 22.0 mph 62 % 0.00 in 338 W/m2
17:12 64.9 °F 52.0 °F 29.99 in WNW 14.0 mph 22.0 mph 63 % 0.00 in 343 W/m2
17:17 63.7 °F 51.3 °F 30.00 in WNW 15.0 mph 25.0 mph 64 % 0.00 in 295 W/m2
17:22 62.4 °F 50.9 °F 30.00 in West 15.0 mph 25.0 mph 66 % 0.00 in 274 W/m2
17:27 61.2 °F 50.1 °F 30.00 in WNW 16.0 mph 28.0 mph 67 % 0.00 in 281 W/m2
17:32 60.3 °F 49.7 °F 30.00 in WNW 17.0 mph 28.0 mph 68 % 0.00 in 216 W/m2
17:37 59.4 °F 49.2 °F 30.00 in West 17.0 mph 29.0 mph 69 % 0.00 in 244 W/m2
17:42 58.8 °F 49.1 °F 30.00 in WNW 16.0 mph 29.0 mph 70 % 0.00 in 162 W/m2
17:47 58.3 °F 48.9 °F 30.01 in WNW 16.0 mph 29.0 mph 71 % 0.00 in 158 W/m2
17:52 57.7 °F 48.8 °F 30.01 in WNW 19.0 mph 29.0 mph 72 % 0.00 in 193 W/m2
17:57 57.4 °F 48.4 °F 30.00 in West 19.0 mph 30.0 mph 72 % 0.00 in 209 W/m2
18:02 57.0 °F 48.8 °F 30.01 in West 18.0 mph 32.0 mph 74 % 0.00 in 155 W/m2
18:07 56.8 °F 48.6 °F 30.01 in West 18.0 mph 32.0 mph 74 % 0.00 in 197 W/m2
18:12 56.7 °F 48.5 °F 30.01 in West 18.0 mph 28.0 mph 74 % 0.00 in 151 W/m2
18:17 56.7 °F 48.5 °F 30.01 in West 17.0 mph 27.0 mph 74 % 0.00 in 137 W/m2
18:22 56.5 °F 47.9 °F 30.01 in West 17.0 mph 27.0 mph 73 % 0.00 in 125 W/m2
18:27 56.1 °F 47.2 °F 30.01 in West 18.0 mph 26.0 mph 72 % 0.00 in 109 W/m2
18:32 55.9 °F 47.0 °F 30.02 in West 18.0 mph 26.0 mph 72 % 0.00 in 97 W/m2
18:37 55.9 °F 47.0 °F 30.02 in West 16.0 mph 26.0 mph 72 % 0.00 in 86 W/m2
18:42 55.9 °F 47.0 °F 30.02 in West 14.0 mph 28.0 mph 72 % 0.00 in 79 W/m2
18:47 55.8 °F 46.1 °F 30.02 in WNW 16.0 mph 28.0 mph 70 % 0.00 in 65 W/m2
18:52 55.6 °F 45.9 °F 30.02 in WNW 17.0 mph 28.0 mph 70 % 0.00 in 62 W/m2
18:57 55.6 °F 45.6 °F 30.02 in WNW 17.0 mph 29.0 mph 69 % 0.00 in 54 W/m2
19:02 55.4 °F 45.4 °F 30.02 in WNW 16.0 mph 29.0 mph 69 % 0.00 in 53 W/m2
19:07 55.0 °F 44.7 °F 30.02 in WNW 16.0 mph 28.0 mph 68 % 0.00 in 46 W/m2
19:12 54.9 °F 44.9 °F 30.03 in WNW 17.0 mph 28.0 mph 69 % 0.00 in 40 W/m2
19:17 54.7 °F 44.7 °F 30.02 in WNW 18.0 mph 27.0 mph 69 % 0.00 in 35 W/m2
19:22 54.5 °F 44.5 °F 30.03 in WNW 17.0 mph 27.0 mph 69 % 0.00 in 30 W/m2
19:27 54.3 °F 44.7 °F 30.03 in WNW 16.0 mph 27.0 mph 70 % 0.00 in 33 W/m2
19:32 54.1 °F 44.9 °F 30.04 in WNW 14.0 mph 27.0 mph 71 % 0.00 in 39 W/m2
19:37 54.0 °F 44.8 °F 30.04 in WNW 13.0 mph 23.0 mph 71 % 0.00 in 25 W/m2
19:43 53.8 °F 45.0 °F 30.04 in WNW 13.0 mph 21.0 mph 72 % 0.00 in 18 W/m2
19:48 53.6 °F 44.8 °F 30.05 in WNW 14.0 mph 21.0 mph 72 % 0.00 in 16 W/m2
19:53 53.2 °F 44.4 °F 30.05 in WNW 15.0 mph 22.0 mph 72 % 0.00 in 12 W/m2
19:58 53.1 °F 44.6 °F 30.05 in WNW 15.0 mph 23.0 mph 73 % 0.00 in 11 W/m2
20:03 52.9 °F 44.5 °F 30.05 in WNW 16.0 mph 27.0 mph 73 % 0.00 in 7 W/m2
20:08 52.9 °F 44.8 °F 30.05 in WNW 17.0 mph 27.0 mph 74 % 0.00 in 5 W/m2
20:13 52.5 °F 44.5 °F 30.05 in WNW 16.0 mph 26.0 mph 74 % 0.00 in 0 W/m2
20:18 52.5 °F 44.5 °F 30.05 in West 15.0 mph 26.0 mph 74 % 0.00 in 0 W/m2
20:23 52.3 °F 44.3 °F 30.05 in West 14.0 mph 24.0 mph 74 % 0.00 in 0 W/m2
20:28 52.3 °F 44.6 °F 30.05 in WNW 14.0 mph 23.0 mph 75 % 0.00 in 0 W/m2
20:34 52.3 °F 44.6 °F 30.06 in WNW 15.0 mph 25.0 mph 75 % 0.00 in 0 W/m2
20:39 52.3 °F 44.6 °F 30.06 in WNW 14.0 mph 25.0 mph 75 % 0.00 in 0 W/m2
20:44 52.3 °F 44.6 °F 30.06 in WNW 12.0 mph 24.0 mph 75 % 0.00 in 0 W/m2
20:49 52.3 °F 44.6 °F 30.06 in WNW 11.0 mph 19.0 mph 75 % 0.00 in 0 W/m2
20:54 52.3 °F 44.6 °F 30.06 in WNW 10.0 mph 19.0 mph 75 % 0.00 in 0 W/m2
20:59 52.3 °F 44.6 °F 30.06 in WNW 9.0 mph 15.0 mph 75 % 0.00 in 0 W/m2
21:04 52.5 °F 44.8 °F 30.06 in WNW 10.0 mph 16.0 mph 75 % 0.00 in 0 W/m2
21:09 52.5 °F 44.8 °F 30.06 in WNW 9.0 mph 16.0 mph 75 % 0.00 in 0 W/m2
21:14 52.7 °F 45.0 °F 30.07 in WNW 8.0 mph 15.0 mph 75 % 0.00 in 0 W/m2
21:19 52.7 °F 45.0 °F 30.06 in WNW 9.0 mph 15.0 mph 75 % 0.00 in 0 W/m2
21:24 52.5 °F 44.8 °F 30.06 in WNW 9.0 mph 18.0 mph 75 % 0.00 in 0 W/m2
21:29 52.5 °F 44.8 °F 30.07 in WNW 8.0 mph 18.0 mph 75 % 0.00 in 0 W/m2
21:34 52.5 °F 44.8 °F 30.07 in WNW 7.0 mph 12.0 mph 75 % 0.00 in 0 W/m2
21:39 52.3 °F 44.6 °F 30.07 in West 8.0 mph 16.0 mph 75 % 0.00 in 0 W/m2
21:44 52.3 °F 44.6 °F 30.07 in West 9.0 mph 16.0 mph 75 % 0.00 in 0 W/m2
21:49 52.3 °F 45.0 °F 30.07 in West 9.0 mph 20.0 mph 76 % 0.00 in 0 W/m2
21:54 52.2 °F 44.8 °F 30.07 in West 9.0 mph 20.0 mph 76 % 0.00 in 0 W/m2
21:55 52.2 °F 44.8 °F 30.07 in West 9.0 mph 20.0 mph 76 % 0.00 in 0 W/m2
22:00 52.2 °F 44.8 °F 30.07 in West 11.0 mph 20.0 mph 76 % 0.00 in 0 W/m2
22:05 52.3 °F 45.0 °F 30.07 in WNW 12.0 mph 20.0 mph 76 % 0.00 in 0 W/m2
22:10 52.3 °F 45.0 °F 30.07 in WNW 13.0 mph 20.0 mph 76 % 0.00 in 0 W/m2
22:15 52.3 °F 45.0 °F 30.07 in WNW 13.0 mph 21.0 mph 76 % 0.00 in 0 W/m2
22:20 52.3 °F 45.3 °F 30.08 in WNW 12.0 mph 21.0 mph 77 % 0.00 in 0 W/m2
22:25 52.3 °F 45.3 °F 30.08 in WNW 10.0 mph 20.0 mph 77 % 0.00 in 0 W/m2
22:30 52.3 °F 45.3 °F 30.08 in WNW 10.0 mph 20.0 mph 77 % 0.00 in 0 W/m2
22:35 52.3 °F 45.3 °F 30.08 in WNW 11.0 mph 22.0 mph 77 % 0.00 in 0 W/m2
22:40 52.3 °F 45.7 °F 30.08 in WNW 11.0 mph 22.0 mph 78 % 0.00 in 0 W/m2
22:45 52.2 °F 45.5 °F 30.08 in WNW 9.0 mph 19.0 mph 78 % 0.00 in 0 W/m2
22:50 52.2 °F 45.8 °F 30.08 in WNW 9.0 mph 23.0 mph 79 % 0.00 in 0 W/m2
22:55 52.0 °F 45.7 °F 30.09 in WNW 10.0 mph 23.0 mph 79 % 0.00 in 0 W/m2
23:00 52.0 °F 45.7 °F 30.09 in WNW 12.0 mph 28.0 mph 79 % 0.00 in 0 W/m2
23:05 51.6 °F 45.0 °F 30.09 in WNW 15.0 mph 28.0 mph 78 % 0.00 in 0 W/m2
23:10 51.3 °F 44.3 °F 30.09 in WNW 15.0 mph 28.0 mph 77 % 0.00 in 0 W/m2
23:15 50.9 °F 44.3 °F 30.09 in WNW 13.0 mph 26.0 mph 78 % 0.00 in 0 W/m2
23:17 50.7 °F 44.1 °F 30.09 in WNW 12.0 mph 26.0 mph 78 % 0.00 in 0 W/m2
23:22 50.4 °F 43.4 °F 30.10 in WNW 11.0 mph 22.0 mph 77 % 0.00 in 0 W/m2
23:27 50.2 °F 43.2 °F 30.10 in WNW 11.0 mph 22.0 mph 77 % 0.00 in 0 W/m2
23:32 49.8 °F 42.9 °F 30.10 in WNW 10.0 mph 20.0 mph 77 % 0.00 in 0 W/m2
23:37 49.5 °F 42.9 °F 30.10 in WNW 10.0 mph 20.0 mph 78 % 0.00 in 0 W/m2
23:42 49.3 °F 42.7 °F 30.10 in NW 10.0 mph 21.0 mph 78 % 0.00 in 0 W/m2
23:47 48.9 °F 42.4 °F 30.10 in WNW 10.0 mph 21.0 mph 78 % 0.00 in 0 W/m2
23:52 48.7 °F 42.5 °F 30.11 in WNW 10.0 mph 20.0 mph 79 % 0.00 in 0 W/m2
23:57 48.6 °F 42.3 °F 30.11 in WNW 11.0 mph 20.0 mph 79 % 0.00 in 0 W/m2
Delerius-Weather
Compliments of Weather Underground - 2.25 mb

Data updates at regular intervals.